createdAt,value
2018-06-05T00:00:03.416Z,20.03
2018-06-05T00:00:34.649Z,20.03
2018-06-05T00:01:05.898Z,20.05
2018-06-05T00:01:38.285Z,20.03
2018-06-05T00:02:09.464Z,20.03
2018-06-05T00:02:40.688Z,20.05
2018-06-05T00:03:11.919Z,20.02
2018-06-05T00:03:43.181Z,19.98
2018-06-05T00:04:14.365Z,19.99
2018-06-05T00:04:45.533Z,20.01
2018-06-05T00:05:16.774Z,20.03
2018-06-05T00:05:48.013Z,20.03
2018-06-05T00:06:19.209Z,20.07
2018-06-05T00:06:50.380Z,20.10
2018-06-05T00:07:21.566Z,20.13
2018-06-05T00:07:52.731Z,20.17
2018-06-05T00:08:23.961Z,20.18
2018-06-05T00:08:55.236Z,20.15
2018-06-05T00:09:26.419Z,20.15
2018-06-05T00:09:57.652Z,20.18
2018-06-05T00:10:28.895Z,20.21
2018-06-05T00:11:00.085Z,20.23
2018-06-05T00:11:31.324Z,20.22
2018-06-05T00:12:02.568Z,20.17
2018-06-05T00:12:33.751Z,20.18
2018-06-05T00:13:04.959Z,20.21
2018-06-05T00:13:36.132Z,20.21
2018-06-05T00:14:07.316Z,20.18
2018-06-05T00:14:38.488Z,20.15
2018-06-05T00:15:09.704Z,20.16
2018-06-05T00:15:40.989Z,20.17
2018-06-05T00:16:12.239Z,20.17
2018-06-05T00:16:43.426Z,20.13
2018-06-05T00:17:14.644Z,20.11
2018-06-05T00:17:45.820Z,20.12
2018-06-05T00:18:17.030Z,20.12
2018-06-05T00:18:48.254Z,20.11
2018-06-05T00:19:19.440Z,20.11
2018-06-05T00:19:50.618Z,20.13
2018-06-05T00:20:21.850Z,20.11
2018-06-05T00:20:53.040Z,20.13
2018-06-05T00:21:25.369Z,20.14
2018-06-05T00:21:56.545Z,20.15
2018-06-05T00:22:27.776Z,20.17
2018-06-05T00:22:59.010Z,20.18
2018-06-05T00:23:30.243Z,20.19
2018-06-05T00:24:02.348Z,20.22
2018-06-05T00:24:33.532Z,20.26
2018-06-05T00:25:04.706Z,20.31
2018-06-05T00:25:35.879Z,20.33
2018-06-05T00:26:07.112Z,20.38
2018-06-05T00:26:38.304Z,16.89
2018-06-05T00:27:09.477Z,20.43
2018-06-05T00:27:40.658Z,20.43
2018-06-05T00:28:11.836Z,20.42
2018-06-05T00:28:43.048Z,20.41
2018-06-05T00:29:14.221Z,20.41
2018-06-05T00:29:45.456Z,20.39
2018-06-05T00:30:16.632Z,20.36
2018-06-05T00:30:47.852Z,20.35
2018-06-05T00:31:20.033Z,20.33
2018-06-05T00:31:51.200Z,20.30
2018-06-05T00:32:22.374Z,20.28
2018-06-05T00:32:53.618Z,20.26
2018-06-05T00:33:24.790Z,20.24
2018-06-05T00:33:56.017Z,20.19
2018-06-05T00:34:27.200Z,20.17
2018-06-05T00:34:58.387Z,20.14
2018-06-05T00:35:29.613Z,20.16
2018-06-05T00:36:00.802Z,20.17
2018-06-05T00:36:32.046Z,20.15
2018-06-05T00:37:03.240Z,20.15
2018-06-05T00:37:34.410Z,20.16
2018-06-05T00:38:05.677Z,20.16
2018-06-05T00:38:36.907Z,20.16
2018-06-05T00:39:08.129Z,20.15
2018-06-05T00:39:39.361Z,20.13
2018-06-05T00:40:10.557Z,20.12
2018-06-05T00:40:41.776Z,20.08
2018-06-05T00:41:12.956Z,20.05
2018-06-05T00:41:44.135Z,20.06
2018-06-05T00:42:15.313Z,19.99
2018-06-05T00:42:46.538Z,20.01
2018-06-05T00:43:18.469Z,20.01
2018-06-05T00:43:49.649Z,20.02
2018-06-05T00:44:20.841Z,20.02
2018-06-05T00:44:52.012Z,20.03
2018-06-05T00:45:23.188Z,20.03
2018-06-05T00:45:54.456Z,20.02
2018-06-05T00:46:25.689Z,20.02
2018-06-05T00:46:56.952Z,20.02
2018-06-05T00:47:28.186Z,20.01
2018-06-05T00:47:59.367Z,20.00
2018-06-05T00:48:30.600Z,19.97
2018-06-05T00:49:01.790Z,19.94
2018-06-05T00:49:32.966Z,19.91
2018-06-05T00:50:04.366Z,19.92
2018-06-05T00:50:35.590Z,19.89
2018-06-05T00:51:06.801Z,19.86
2018-06-05T00:51:38.025Z,19.85
2018-06-05T00:52:09.266Z,19.85
2018-06-05T00:52:40.501Z,19.82
2018-06-05T00:53:11.684Z,19.79
2018-06-05T00:53:42.861Z,19.77
2018-06-05T00:54:14.045Z,19.77
2018-06-05T00:54:45.274Z,19.77
2018-06-05T00:55:16.448Z,19.76
2018-06-05T00:55:47.688Z,19.76
2018-06-05T00:56:18.865Z,19.75
2018-06-05T00:56:50.045Z,19.76
2018-06-05T00:57:21.278Z,19.73
2018-06-05T00:57:52.510Z,19.72
2018-06-05T00:58:23.692Z,19.67
2018-06-05T00:58:54.916Z,19.66
2018-06-05T00:59:26.104Z,19.65
2018-06-05T00:59:57.269Z,19.66
2018-06-05T01:00:28.502Z,19.66
2018-06-05T01:00:59.719Z,19.65
2018-06-05T01:01:30.902Z,19.64
2018-06-05T01:02:02.124Z,19.64
2018-06-05T01:02:33.300Z,19.60
2018-06-05T01:03:04.565Z,19.59
2018-06-05T01:03:35.740Z,19.56
2018-06-05T01:04:06.922Z,19.54
2018-06-05T01:04:38.092Z,19.50
2018-06-05T01:05:09.270Z,19.50
2018-06-05T01:05:40.444Z,19.49
2018-06-05T01:06:11.616Z,19.50
2018-06-05T01:06:42.792Z,19.49
2018-06-05T01:07:13.996Z,19.50
2018-06-05T01:07:45.160Z,19.49
2018-06-05T01:08:16.387Z,19.49
2018-06-05T01:08:47.575Z,19.51
2018-06-05T01:09:18.749Z,19.52
2018-06-05T01:09:49.992Z,19.50
2018-06-05T01:10:21.176Z,19.51
2018-06-05T01:10:52.348Z,19.47
2018-06-05T01:11:23.622Z,19.45
2018-06-05T01:11:54.862Z,19.42
2018-06-05T01:12:26.051Z,19.39
2018-06-05T01:12:57.278Z,19.31
2018-06-05T01:13:28.463Z,19.31
2018-06-05T01:13:59.674Z,19.31
2018-06-05T01:14:30.890Z,19.30
2018-06-05T01:15:02.066Z,19.28
2018-06-05T01:15:33.294Z,19.27
2018-06-05T01:16:04.528Z,19.27
2018-06-05T01:16:35.711Z,19.27
2018-06-05T01:17:06.884Z,19.25
2018-06-05T01:17:38.056Z,19.24
2018-06-05T01:18:09.282Z,19.26
2018-06-05T01:18:40.555Z,19.25
2018-06-05T01:19:11.729Z,19.25
2018-06-05T01:19:42.904Z,19.29
2018-06-05T01:20:14.070Z,19.30
2018-06-05T01:20:45.256Z,19.31
2018-06-05T01:21:16.427Z,19.30
2018-06-05T01:21:47.604Z,19.28
2018-06-05T01:22:18.861Z,19.22
2018-06-05T01:22:50.096Z,19.21
2018-06-05T01:23:21.337Z,19.20
2018-06-05T01:23:52.512Z,19.20
2018-06-05T01:24:23.704Z,19.16
2018-06-05T01:24:54.927Z,19.09
2018-06-05T01:25:26.091Z,19.12
2018-06-05T01:25:57.337Z,19.15
2018-06-05T01:26:28.520Z,19.09
2018-06-05T01:26:59.695Z,19.09
2018-06-05T01:27:30.915Z,19.08
2018-06-05T01:28:02.101Z,19.08
2018-06-05T01:28:33.338Z,18.97
2018-06-05T01:29:04.508Z,19.00
2018-06-05T01:29:35.729Z,18.76
2018-06-05T01:30:06.961Z,18.96
2018-06-05T01:30:38.153Z,18.96
2018-06-05T01:31:09.925Z,18.94
2018-06-05T01:31:41.096Z,18.95
2018-06-05T01:32:12.268Z,18.99
2018-06-05T01:32:43.445Z,18.99
2018-06-05T01:33:14.616Z,19.04
2018-06-05T01:33:45.872Z,19.07
2018-06-05T01:34:17.048Z,19.07
2018-06-05T01:34:48.225Z,19.07
2018-06-05T01:35:19.394Z,19.04
2018-06-05T01:35:50.653Z,18.98
2018-06-05T01:36:21.886Z,18.95
2018-06-05T01:36:53.059Z,18.91
2018-06-05T01:37:24.302Z,18.89
2018-06-05T01:37:55.480Z,18.87
2018-06-05T01:38:26.704Z,18.87
2018-06-05T01:38:57.919Z,18.87
2018-06-05T01:39:29.093Z,18.86
2018-06-05T01:40:00.315Z,18.84
2018-06-05T01:40:31.540Z,18.82
2018-06-05T01:41:02.772Z,18.84
2018-06-05T01:41:34.001Z,18.77
2018-06-05T01:42:05.182Z,18.76
2018-06-05T01:42:36.364Z,18.73
2018-06-05T01:43:07.582Z,18.70
2018-06-05T01:43:38.808Z,18.70
2018-06-05T01:44:10.089Z,18.72
2018-06-05T01:44:41.272Z,18.74
2018-06-05T01:45:12.455Z,18.80
2018-06-05T01:45:43.622Z,18.83
2018-06-05T01:46:14.796Z,18.86
2018-06-05T01:46:46.013Z,18.86
2018-06-05T01:47:17.196Z,18.85
2018-06-05T01:47:48.431Z,18.86
2018-06-05T01:48:19.711Z,18.83
2018-06-05T01:48:50.892Z,18.84
2018-06-05T01:49:22.071Z,18.85
2018-06-05T01:49:53.245Z,18.84
2018-06-05T01:50:24.465Z,18.83
2018-06-05T01:50:55.644Z,18.84
2018-06-05T01:51:26.817Z,18.85
2018-06-05T01:51:58.214Z,18.82
2018-06-05T01:52:29.398Z,18.78
2018-06-05T01:53:00.568Z,18.70
2018-06-05T01:53:31.817Z,18.66
2018-06-05T01:54:02.992Z,18.63
2018-06-05T01:54:34.166Z,18.63
2018-06-05T01:55:05.359Z,18.62
2018-06-05T01:55:36.591Z,18.62
2018-06-05T01:56:07.777Z,18.61
2018-06-05T01:56:38.953Z,18.60
2018-06-05T01:57:10.186Z,18.61
2018-06-05T01:57:41.574Z,18.58
2018-06-05T01:58:12.746Z,18.56
2018-06-05T01:58:43.981Z,18.52
2018-06-05T01:59:15.192Z,18.50
2018-06-05T01:59:46.685Z,18.51
2018-06-05T02:00:17.864Z,18.53
2018-06-05T02:00:49.093Z,18.56
2018-06-05T02:01:20.271Z,18.55
2018-06-05T02:01:51.433Z,18.58
2018-06-05T02:02:22.605Z,18.43
2018-06-05T02:02:53.781Z,18.62
2018-06-05T02:03:25.005Z,18.64
2018-06-05T02:03:56.180Z,18.67
2018-06-05T02:04:27.397Z,18.70
2018-06-05T02:04:58.583Z,18.69
2018-06-05T02:05:29.804Z,18.69
2018-06-05T02:06:00.984Z,18.66
2018-06-05T02:06:32.168Z,18.69
2018-06-05T02:07:03.333Z,18.64
2018-06-05T02:07:34.500Z,18.66
2018-06-05T02:08:05.679Z,18.63
2018-06-05T02:08:36.897Z,18.61
2018-06-05T02:09:08.120Z,18.67
2018-06-05T02:09:39.293Z,18.70
2018-06-05T02:10:10.467Z,18.69
2018-06-05T02:10:42.775Z,18.69
2018-06-05T02:11:13.948Z,18.70
2018-06-05T02:11:45.172Z,18.70
2018-06-05T02:12:16.489Z,18.67
2018-06-05T02:12:47.664Z,18.66
2018-06-05T02:13:18.884Z,18.63
2018-06-05T02:13:50.076Z,18.63
2018-06-05T02:14:21.292Z,18.61
2018-06-05T02:14:52.514Z,18.60
2018-06-05T02:15:23.806Z,18.60
2018-06-05T02:15:54.978Z,18.62
2018-06-05T02:16:26.205Z,18.62
2018-06-05T02:16:57.376Z,18.63
2018-06-05T02:17:28.580Z,18.64
2018-06-05T02:17:59.740Z,18.63
2018-06-05T02:18:30.922Z,18.63
2018-06-05T02:19:02.090Z,18.62
2018-06-05T02:19:33.256Z,18.61
2018-06-05T02:20:04.428Z,18.62
2018-06-05T02:20:35.645Z,18.66
2018-06-05T02:21:06.812Z,18.66
2018-06-05T02:21:37.984Z,18.64
2018-06-05T02:22:09.248Z,18.64
2018-06-05T02:22:40.420Z,18.63
2018-06-05T02:23:11.604Z,18.60
2018-06-05T02:23:42.830Z,18.60
2018-06-05T02:24:14.073Z,18.56
2018-06-05T02:24:45.256Z,18.52
2018-06-05T02:25:16.432Z,18.54
2018-06-05T02:25:47.640Z,18.55
2018-06-05T02:26:18.813Z,18.50
2018-06-05T02:26:49.976Z,18.51
2018-06-05T02:27:21.212Z,18.47
2018-06-05T02:27:52.398Z,18.46
2018-06-05T02:28:23.572Z,18.47
2018-06-05T02:28:54.744Z,18.47
2018-06-05T02:29:25.954Z,18.43
2018-06-05T02:29:57.165Z,18.44
2018-06-05T02:30:28.361Z,18.46
2018-06-05T02:30:59.581Z,18.46
2018-06-05T02:31:30.813Z,18.41
2018-06-05T02:32:01.982Z,18.46
2018-06-05T02:32:33.201Z,18.49
2018-06-05T02:33:04.428Z,18.54
2018-06-05T02:33:35.604Z,18.58
2018-06-05T02:34:06.811Z,18.61
2018-06-05T02:34:37.986Z,18.61
2018-06-05T02:35:09.156Z,18.64
2018-06-05T02:35:40.333Z,18.64
2018-06-05T02:36:11.505Z,18.64
2018-06-05T02:36:42.680Z,18.64
2018-06-05T02:37:13.907Z,18.62
2018-06-05T02:37:45.088Z,18.61
2018-06-05T02:38:16.257Z,18.60
2018-06-05T02:38:47.514Z,18.62
2018-06-05T02:39:18.694Z,18.66
2018-06-05T02:39:49.923Z,18.67
2018-06-05T02:40:21.104Z,18.65
2018-06-05T02:40:52.272Z,18.63
2018-06-05T02:41:23.539Z,18.59
2018-06-05T02:41:54.740Z,18.62
2018-06-05T02:42:25.917Z,18.62
2018-06-05T02:42:57.130Z,18.64
2018-06-05T02:43:28.365Z,18.64
2018-06-05T02:43:59.558Z,18.66
2018-06-05T02:44:30.724Z,18.67
2018-06-05T02:45:01.939Z,18.63
2018-06-05T02:45:33.160Z,18.62
2018-06-05T02:46:04.321Z,18.57
2018-06-05T02:46:35.597Z,18.50
2018-06-05T02:47:06.779Z,18.51
2018-06-05T02:47:37.944Z,18.49
2018-06-05T02:48:09.105Z,18.50
2018-06-05T02:48:40.290Z,18.52
2018-06-05T02:49:11.476Z,18.50
2018-06-05T02:49:42.698Z,18.50
2018-06-05T02:50:13.928Z,18.49
2018-06-05T02:50:45.246Z,18.47
2018-06-05T02:51:16.438Z,18.45
2018-06-05T02:51:47.699Z,18.39
2018-06-05T02:52:18.933Z,18.37
2018-06-05T02:52:50.174Z,18.36
2018-06-05T02:53:21.352Z,18.36
2018-06-05T02:53:52.578Z,18.39
2018-06-05T02:54:23.800Z,18.42
2018-06-05T02:54:55.029Z,18.47
2018-06-05T02:55:26.259Z,18.52
2018-06-05T02:55:57.436Z,18.59
2018-06-05T02:56:28.616Z,18.64
2018-06-05T02:56:59.812Z,18.69
2018-06-05T02:57:31.104Z,18.75
2018-06-05T02:58:02.345Z,18.75
2018-06-05T02:58:33.602Z,18.78
2018-06-05T02:59:04.768Z,18.79
2018-06-05T02:59:35.939Z,18.82
2018-06-05T03:00:07.107Z,18.84
2018-06-05T03:00:38.338Z,18.86
2018-06-05T03:01:09.529Z,18.83
2018-06-05T03:01:40.700Z,18.83
2018-06-05T03:02:12.841Z,18.77
2018-06-05T03:02:44.064Z,18.75
2018-06-05T03:03:15.303Z,18.76
2018-06-05T03:03:46.502Z,18.71
2018-06-05T03:04:17.733Z,18.72
2018-06-05T03:04:48.961Z,18.71
2018-06-05T03:05:20.191Z,18.70
2018-06-05T03:05:51.358Z,18.68
2018-06-05T03:06:22.532Z,18.65
2018-06-05T03:06:53.710Z,18.62
2018-06-05T03:07:24.884Z,18.63
2018-06-05T03:07:56.194Z,18.65
2018-06-05T03:08:27.473Z,18.67
2018-06-05T03:08:58.702Z,18.68
2018-06-05T03:09:29.882Z,18.67
2018-06-05T03:10:01.048Z,18.70
2018-06-05T03:10:32.271Z,18.73
2018-06-05T03:11:03.493Z,18.79
2018-06-05T03:11:34.702Z,18.86
2018-06-05T03:12:05.965Z,18.91
2018-06-05T03:12:37.207Z,18.95
2018-06-05T03:13:08.402Z,18.95
2018-06-05T03:13:39.581Z,18.97
2018-06-05T03:14:10.781Z,18.97
2018-06-05T03:14:41.967Z,18.92
2018-06-05T03:15:13.141Z,18.92
2018-06-05T03:15:44.409Z,18.92
2018-06-05T03:16:15.596Z,18.92
2018-06-05T03:16:46.772Z,18.91
2018-06-05T03:17:17.949Z,18.89
2018-06-05T03:17:49.208Z,18.93
2018-06-05T03:18:20.388Z,18.95
2018-06-05T03:18:51.649Z,18.95
2018-06-05T03:19:22.886Z,18.96
2018-06-05T03:19:54.116Z,18.95
2018-06-05T03:20:25.289Z,18.99
2018-06-05T03:20:56.521Z,19.00
2018-06-05T03:21:27.703Z,19.03
2018-06-05T03:21:58.921Z,19.06
2018-06-05T03:22:30.170Z,19.10
2018-06-05T03:23:01.353Z,19.15
2018-06-05T03:23:32.581Z,19.26
2018-06-05T03:24:03.801Z,19.38
2018-06-05T03:24:34.969Z,19.52
2018-06-05T03:25:06.233Z,19.64
2018-06-05T03:25:37.461Z,19.76
2018-06-05T03:26:08.641Z,19.89
2018-06-05T03:26:39.816Z,20.00
2018-06-05T03:27:11.037Z,20.14
2018-06-05T03:27:42.274Z,20.28
2018-06-05T03:28:13.515Z,20.40
2018-06-05T03:28:44.694Z,20.46
2018-06-05T03:29:15.963Z,20.57
2018-06-05T03:29:47.145Z,20.61
2018-06-05T03:30:18.366Z,20.65
2018-06-05T03:30:49.612Z,20.66
2018-06-05T03:31:20.790Z,20.69
2018-06-05T03:31:51.962Z,20.67
2018-06-05T03:32:23.178Z,20.69
2018-06-05T03:32:54.364Z,20.76
2018-06-05T03:33:25.585Z,20.84
2018-06-05T03:33:56.841Z,20.90
2018-06-05T03:34:28.153Z,20.94
2018-06-05T03:34:59.381Z,20.92
2018-06-05T03:35:30.567Z,20.95
2018-06-05T03:36:01.746Z,20.98
2018-06-05T03:36:32.972Z,21.03
2018-06-05T03:37:04.210Z,21.11
2018-06-05T03:37:35.449Z,21.12
2018-06-05T03:38:06.628Z,21.12
2018-06-05T03:38:37.796Z,21.16
2018-06-05T03:39:09.033Z,21.23
2018-06-05T03:39:40.272Z,21.33
2018-06-05T03:40:11.503Z,21.45
2018-06-05T03:40:42.735Z,21.48
2018-06-05T03:41:13.972Z,21.47
2018-06-05T03:41:45.211Z,21.52
2018-06-05T03:42:16.413Z,21.57
2018-06-05T03:42:47.686Z,21.69
2018-06-05T03:43:18.868Z,21.80
2018-06-05T03:43:50.049Z,21.88
2018-06-05T03:44:21.230Z,21.96
2018-06-05T03:44:52.410Z,22.06
2018-06-05T03:45:23.594Z,22.15
2018-06-05T03:45:54.769Z,22.24
2018-06-05T03:46:25.945Z,22.35
2018-06-05T03:46:57.120Z,22.41
2018-06-05T03:47:28.385Z,22.54
2018-06-05T03:47:59.622Z,22.63
2018-06-05T03:48:30.804Z,22.77
2018-06-05T03:49:02.335Z,22.95
2018-06-05T03:49:33.528Z,23.10
2018-06-05T03:50:04.768Z,23.27
2018-06-05T03:50:35.951Z,23.36
2018-06-05T03:51:07.189Z,23.41
2018-06-05T03:51:38.421Z,23.49
2018-06-05T03:52:10.447Z,23.60
2018-06-05T03:52:41.668Z,23.68
2018-06-05T03:53:12.840Z,23.69
2018-06-05T03:53:44.014Z,23.76
2018-06-05T03:54:15.190Z,23.81
2018-06-05T03:54:46.405Z,23.80
2018-06-05T03:55:17.569Z,23.67
2018-06-05T03:55:48.757Z,23.51
2018-06-05T03:56:19.937Z,23.40
2018-06-05T03:56:51.157Z,23.25
2018-06-05T03:57:22.389Z,23.16
2018-06-05T03:57:53.579Z,23.09
2018-06-05T03:58:24.756Z,23.01
2018-06-05T03:58:55.971Z,23.01
2018-06-05T03:59:27.156Z,23.11
2018-06-05T03:59:58.377Z,23.30
2018-06-05T04:00:29.605Z,23.52
2018-06-05T04:01:00.797Z,23.76
2018-06-05T04:01:32.068Z,23.98
2018-06-05T04:02:03.455Z,24.15
2018-06-05T04:02:34.651Z,24.22
2018-06-05T04:03:05.832Z,24.25
2018-06-05T04:03:37.008Z,24.35
2018-06-05T04:04:08.205Z,24.45
2018-06-05T04:04:39.386Z,24.53
2018-06-05T04:05:10.565Z,24.54
2018-06-05T04:05:41.772Z,24.46
2018-06-05T04:06:13.017Z,24.42
2018-06-05T04:06:44.209Z,24.31
2018-06-05T04:07:15.473Z,24.19
2018-06-05T04:07:46.656Z,24.07
2018-06-05T04:08:17.828Z,23.96
2018-06-05T04:08:49.001Z,23.90
2018-06-05T04:09:20.170Z,23.92
2018-06-05T04:09:51.393Z,23.98
2018-06-05T04:10:22.572Z,24.06
2018-06-05T04:10:53.756Z,24.23
2018-06-05T04:11:24.929Z,24.39
2018-06-05T04:11:56.163Z,24.58
2018-06-05T04:12:27.391Z,24.76
2018-06-05T04:12:58.576Z,24.95
2018-06-05T04:13:29.814Z,25.02
2018-06-05T04:14:00.993Z,25.03
2018-06-05T04:14:32.224Z,24.96
2018-06-05T04:15:03.454Z,24.89
2018-06-05T04:15:34.632Z,24.80
2018-06-05T04:16:05.812Z,24.67
2018-06-05T04:16:36.986Z,24.54
2018-06-05T04:17:08.225Z,24.45
2018-06-05T04:17:39.464Z,24.40
2018-06-05T04:18:10.688Z,24.45
2018-06-05T04:18:41.886Z,24.57
2018-06-05T04:19:13.122Z,24.66
2018-06-05T04:19:44.351Z,24.63
2018-06-05T04:20:15.532Z,24.64
2018-06-05T04:20:46.767Z,24.62
2018-06-05T04:21:17.953Z,24.50
2018-06-05T04:21:49.131Z,24.33
2018-06-05T04:22:20.353Z,24.13
2018-06-05T04:22:51.541Z,23.99
2018-06-05T04:23:22.769Z,23.91
2018-06-05T04:23:54.000Z,23.82
2018-06-05T04:24:25.280Z,23.71
2018-06-05T04:24:56.468Z,23.74
2018-06-05T04:25:27.640Z,23.78
2018-06-05T04:25:58.893Z,23.94
2018-06-05T04:26:30.073Z,24.15
2018-06-05T04:27:01.282Z,24.41
2018-06-05T04:27:32.464Z,24.56
2018-06-05T04:28:03.658Z,24.70
2018-06-05T04:28:34.844Z,25.02
2018-06-05T04:29:06.065Z,25.32
2018-06-05T04:29:37.298Z,25.56
2018-06-05T04:30:08.542Z,25.73
2018-06-05T04:30:39.728Z,25.73
2018-06-05T04:31:10.951Z,25.75
2018-06-05T04:31:42.184Z,25.70
2018-06-05T04:32:13.423Z,25.44
2018-06-05T04:32:44.601Z,25.35
2018-06-05T04:33:15.768Z,25.23
2018-06-05T04:33:46.951Z,25.14
2018-06-05T04:34:18.191Z,25.10
2018-06-05T04:34:49.458Z,25.00
2018-06-05T04:35:20.706Z,25.11
2018-06-05T04:35:51.936Z,25.16
2018-06-05T04:36:23.178Z,25.25
2018-06-05T04:36:54.356Z,25.46
2018-06-05T04:37:25.540Z,25.55
2018-06-05T04:37:56.751Z,25.72
2018-06-05T04:38:27.989Z,25.56
2018-06-05T04:38:59.177Z,25.62
2018-06-05T04:39:30.348Z,25.24
2018-06-05T04:40:01.566Z,25.18
2018-06-05T04:40:32.810Z,25.02
2018-06-05T04:41:04.084Z,24.77
2018-06-05T04:41:35.313Z,24.76
2018-06-05T04:42:06.497Z,24.57
2018-06-05T04:42:37.675Z,24.22
2018-06-05T04:43:08.852Z,24.06
2018-06-05T04:43:40.025Z,24.06
2018-06-05T04:44:11.249Z,24.04
2018-06-05T04:44:42.477Z,23.95
2018-06-05T04:45:13.661Z,23.82
2018-06-05T04:45:44.840Z,23.79
2018-06-05T04:46:16.117Z,23.73
2018-06-05T04:46:47.348Z,23.71
2018-06-05T04:47:18.560Z,23.72
2018-06-05T04:47:49.748Z,23.68
2018-06-05T04:48:20.923Z,23.74
2018-06-05T04:48:52.109Z,23.78
2018-06-05T04:49:23.288Z,23.84
2018-06-05T04:49:54.469Z,23.88
2018-06-05T04:50:25.637Z,23.83
2018-06-05T04:50:56.919Z,23.85
2018-06-05T04:51:28.115Z,23.94
2018-06-05T04:51:59.281Z,24.03
2018-06-05T04:52:30.476Z,24.09
2018-06-05T04:53:01.649Z,24.15
2018-06-05T04:53:32.834Z,24.16
2018-06-05T04:54:04.021Z,24.21
2018-06-05T04:54:35.200Z,24.22
2018-06-05T04:55:06.368Z,24.19
2018-06-05T04:55:37.586Z,24.20
2018-06-05T04:56:08.899Z,24.19
2018-06-05T04:56:40.857Z,24.24
2018-06-05T04:57:12.086Z,24.27
2018-06-05T04:57:43.306Z,24.30
2018-06-05T04:58:14.483Z,24.37
2018-06-05T04:58:45.719Z,24.36
2018-06-05T04:59:16.901Z,24.37
2018-06-05T04:59:48.122Z,24.48
2018-06-05T05:00:19.353Z,24.54
2018-06-05T05:00:50.579Z,24.69
2018-06-05T05:01:21.759Z,24.82
2018-06-05T05:01:52.933Z,24.97
2018-06-05T05:02:24.222Z,25.07
2018-06-05T05:02:55.397Z,25.07
2018-06-05T05:03:26.621Z,25.14
2018-06-05T05:03:57.847Z,25.29
2018-06-05T05:04:29.018Z,25.32
2018-06-05T05:05:00.199Z,25.57
2018-06-05T05:05:31.383Z,25.72
2018-06-05T05:06:02.606Z,25.80
2018-06-05T05:06:33.909Z,25.90
2018-06-05T05:07:05.138Z,25.94
2018-06-05T05:07:36.377Z,26.00
2018-06-05T05:08:07.564Z,25.91
2018-06-05T05:08:38.784Z,25.97
2018-06-05T05:09:10.022Z,26.01
2018-06-05T05:09:41.214Z,25.99
2018-06-05T05:10:12.400Z,25.95
2018-06-05T05:10:43.588Z,25.97
2018-06-05T05:11:14.819Z,26.00
2018-06-05T05:11:46.105Z,26.10
2018-06-05T05:12:17.348Z,26.20
2018-06-05T05:12:48.532Z,26.28
2018-06-05T05:13:19.753Z,26.57
2018-06-05T05:13:50.936Z,26.81
2018-06-05T05:14:22.165Z,27.11
2018-06-05T05:14:53.365Z,27.46
2018-06-05T05:15:24.537Z,27.79
2018-06-05T05:15:55.716Z,28.13
2018-06-05T05:16:26.955Z,28.17
2018-06-05T05:16:58.215Z,28.18
2018-06-05T05:17:29.435Z,28.42
2018-06-05T05:18:00.665Z,28.71
2018-06-05T05:18:31.854Z,28.80
2018-06-05T05:19:03.065Z,28.92
2018-06-05T05:19:34.292Z,29.11
2018-06-05T05:20:05.532Z,29.22
2018-06-05T05:20:36.722Z,29.34
2018-06-05T05:21:07.948Z,29.27
2018-06-05T05:21:39.134Z,29.19
2018-06-05T05:22:10.361Z,29.18
2018-06-05T05:22:41.555Z,29.33
2018-06-05T05:23:12.782Z,29.51
2018-06-05T05:23:44.016Z,29.70
2018-06-05T05:24:15.213Z,29.66
2018-06-05T05:24:46.389Z,29.73
2018-06-05T05:25:17.560Z,29.76
2018-06-05T05:25:48.780Z,29.82
2018-06-05T05:26:20.017Z,29.63
2018-06-05T05:26:51.299Z,29.77
2018-06-05T05:27:22.489Z,29.84
2018-06-05T05:27:53.666Z,29.77
2018-06-05T05:28:24.971Z,29.90
2018-06-05T05:28:56.171Z,29.97
2018-06-05T05:29:27.349Z,29.97
2018-06-05T05:30:02.413Z,29.99
2018-06-05T05:30:33.648Z,30.09
2018-06-05T05:31:04.836Z,30.21
2018-06-05T05:31:36.018Z,30.37
2018-06-05T05:32:07.234Z,30.57
2018-06-05T05:32:38.431Z,30.42
2018-06-05T05:33:09.601Z,30.59
2018-06-05T05:33:40.779Z,30.60
2018-06-05T05:34:11.955Z,30.67
2018-06-05T05:34:43.156Z,30.58
2018-06-05T05:35:14.349Z,30.43
2018-06-05T05:35:45.524Z,30.31
2018-06-05T05:36:16.741Z,30.30
2018-06-05T05:36:47.917Z,30.20
2018-06-05T05:37:19.141Z,30.05
2018-06-05T05:37:50.316Z,30.16
2018-06-05T05:38:21.493Z,30.12
2018-06-05T05:38:52.658Z,30.12
2018-06-05T05:39:23.934Z,29.90
2018-06-05T05:39:55.215Z,29.64
2018-06-05T05:40:26.399Z,29.48
2018-06-05T05:40:57.685Z,29.13
2018-06-05T05:41:28.872Z,28.94
2018-06-05T05:42:00.053Z,28.89
2018-06-05T05:42:31.231Z,28.81
2018-06-05T05:43:02.401Z,28.70
2018-06-05T05:43:33.637Z,28.64
2018-06-05T05:44:04.821Z,28.53
2018-06-05T05:44:36.043Z,28.40
2018-06-05T05:45:07.236Z,28.42
2018-06-05T05:45:38.465Z,28.39
2018-06-05T05:46:09.698Z,28.37
2018-06-05T05:46:40.876Z,28.40
2018-06-05T05:47:12.070Z,28.42
2018-06-05T05:47:43.248Z,28.48
2018-06-05T05:48:14.421Z,28.51
2018-06-05T05:48:45.597Z,28.52
2018-06-05T05:49:16.833Z,28.39
2018-06-05T05:49:48.080Z,28.34
2018-06-05T05:50:19.256Z,28.32
2018-06-05T05:50:50.431Z,28.33
2018-06-05T05:51:21.645Z,28.42
2018-06-05T05:51:52.865Z,28.52
2018-06-05T05:52:24.045Z,28.57
2018-06-05T05:52:55.273Z,28.44
2018-06-05T05:53:26.518Z,28.35
2018-06-05T05:53:57.697Z,28.40
2018-06-05T05:54:28.887Z,28.40
2018-06-05T05:55:00.115Z,28.33
2018-06-05T05:55:31.350Z,28.25
2018-06-05T05:56:02.532Z,28.25
2018-06-05T05:56:33.743Z,28.22
2018-06-05T05:57:04.963Z,28.17
2018-06-05T05:57:36.140Z,28.07
2018-06-05T05:58:07.368Z,27.88
2018-06-05T05:58:38.557Z,27.75
2018-06-05T05:59:09.740Z,27.76
2018-06-05T05:59:40.919Z,27.70
2018-06-05T06:00:12.090Z,27.68
2018-06-05T06:00:43.266Z,27.70
2018-06-05T06:01:14.476Z,27.75
2018-06-05T06:01:45.664Z,27.92
2018-06-05T06:02:16.880Z,28.01
2018-06-05T06:02:48.116Z,28.02
2018-06-05T06:03:19.324Z,28.02
2018-06-05T06:03:50.517Z,28.14
2018-06-05T06:04:21.872Z,28.14
2018-06-05T06:04:53.050Z,28.20
2018-06-05T06:05:24.217Z,28.18
2018-06-05T06:05:55.400Z,28.11
2018-06-05T06:06:26.569Z,28.18
2018-06-05T06:06:57.735Z,28.30
2018-06-05T06:07:28.989Z,28.41
2018-06-05T06:08:00.168Z,28.48
2018-06-05T06:08:31.333Z,28.50
2018-06-05T06:09:02.553Z,28.40
2018-06-05T06:09:33.739Z,28.32
2018-06-05T06:10:04.959Z,28.20
2018-06-05T06:10:36.148Z,28.09
2018-06-05T06:11:07.365Z,28.04
2018-06-05T06:11:38.587Z,28.12
2018-06-05T06:12:09.759Z,28.17
2018-06-05T06:12:40.928Z,28.17
2018-06-05T06:13:12.153Z,28.15
2018-06-05T06:13:43.345Z,28.17
2018-06-05T06:14:14.574Z,28.23
2018-06-05T06:14:45.820Z,28.32
2018-06-05T06:15:16.998Z,28.24
2018-06-05T06:15:48.165Z,28.13
2018-06-05T06:16:19.398Z,28.14
2018-06-05T06:16:50.592Z,28.19
2018-06-05T06:17:21.817Z,28.28
2018-06-05T06:17:52.992Z,28.37
2018-06-05T06:18:24.169Z,28.43
2018-06-05T06:18:55.339Z,28.52
2018-06-05T06:19:26.593Z,28.49
2018-06-05T06:19:57.789Z,28.54
2018-06-05T06:20:28.964Z,28.56
2018-06-05T06:21:00.137Z,28.60
2018-06-05T06:21:31.357Z,28.70
2018-06-05T06:22:02.588Z,28.81
2018-06-05T06:22:33.771Z,28.83
2018-06-05T06:23:05.002Z,28.74
2018-06-05T06:23:36.176Z,28.70
2018-06-05T06:24:07.349Z,28.71
2018-06-05T06:24:38.574Z,28.75
2018-06-05T06:25:09.748Z,28.84
2018-06-05T06:25:40.915Z,28.88
2018-06-05T06:26:12.092Z,28.71
2018-06-05T06:26:43.357Z,28.62
2018-06-05T06:27:14.538Z,28.57
2018-06-05T06:27:45.723Z,28.46
2018-06-05T06:28:16.937Z,28.51
2018-06-05T06:28:48.173Z,28.51
2018-06-05T06:29:19.401Z,28.56
2018-06-05T06:29:50.621Z,28.50
2018-06-05T06:30:21.806Z,28.45
2018-06-05T06:30:52.989Z,28.41
2018-06-05T06:31:24.250Z,28.37
2018-06-05T06:31:55.475Z,28.25
2018-06-05T06:32:26.713Z,28.22
2018-06-05T06:32:57.952Z,28.29
2018-06-05T06:33:29.175Z,28.37
2018-06-05T06:34:00.343Z,28.41
2018-06-05T06:34:31.520Z,28.40
2018-06-05T06:35:02.740Z,28.31
2018-06-05T06:35:33.923Z,28.17
2018-06-05T06:36:05.088Z,28.11
2018-06-05T06:36:36.423Z,28.06
2018-06-05T06:37:07.600Z,27.66
2018-06-05T06:37:38.765Z,27.96
2018-06-05T06:38:09.933Z,28.00
2018-06-05T06:38:41.145Z,28.03
2018-06-05T06:39:12.320Z,28.10
2018-06-05T06:39:43.497Z,28.15
2018-06-05T06:40:14.710Z,28.18
2018-06-05T06:40:45.885Z,28.22
2018-06-05T06:41:17.077Z,28.33
2018-06-05T06:41:48.262Z,28.43